Emilio V. Bunge, Argentina
Current Conditions -  °F | °C
As of 4:00 AM on Saturday 20 Dec 2014 (Local Time) from SAOC Reporting Station
Thunderstorm Thunderstorm  
Wind Chill: 70°   Ceiling: 5000
Heat Index: 70°   Visibility: 6mi
Dew Point: 59°   Wind: 17mph
Humidity: 68%   Direction: 180°S
Pressure: 29.8"   Gusts: NA
Location:  34.76°S, 63.08°W
Report Text: SAOC 200700Z 18015KT 9999 TSRA SCT030FEW040CB OVC050 21/15 Q1009
Loading
Personal Weather Stations






























Interactive Weather Map New forecast layout! Learn more

10-Day Weather Forecast

Advertisements
Track Severe Weather on mobile